sensor_id;sensor_type;location;lat;lon;timestamp;P1;durP1;ratioP1;P2;durP2;ratioP2
23101;SDS011;11720;51.214;22.574;2023-03-26T00:01:53;8.03;;;2.77;;
23101;SDS011;11720;51.214;22.574;2023-03-26T00:04:20;5.00;;;2.83;;
23101;SDS011;11720;51.214;22.574;2023-03-26T00:06:49;5.63;;;3.57;;
23101;SDS011;11720;51.214;22.574;2023-03-26T00:09:16;3.83;;;2.10;;
23101;SDS011;11720;51.214;22.574;2023-03-26T00:11:42;4.47;;;3.60;;
23101;SDS011;11720;51.214;22.574;2023-03-26T00:14:10;7.77;;;3.40;;
23101;SDS011;11720;51.214;22.574;2023-03-26T00:16:38;4.70;;;3.10;;
23101;SDS011;11720;51.214;22.574;2023-03-26T00:19:06;5.67;;;3.10;;
23101;SDS011;11720;51.214;22.574;2023-03-26T00:21:31;3.27;;;2.27;;
23101;SDS011;11720;51.214;22.574;2023-03-26T00:24:00;4.50;;;2.60;;
23101;SDS011;11720;51.214;22.574;2023-03-26T00:26:33;6.80;;;3.73;;
23101;SDS011;11720;51.214;22.574;2023-03-26T00:29:01;3.67;;;2.57;;
23101;SDS011;11720;51.214;22.574;2023-03-26T00:31:28;3.73;;;2.47;;
23101;SDS011;11720;51.214;22.574;2023-03-26T00:33:54;6.27;;;2.73;;
23101;SDS011;11720;51.214;22.574;2023-03-26T00:36:20;3.20;;;2.17;;
23101;SDS011;11720;51.214;22.574;2023-03-26T00:38:49;4.80;;;2.93;;
23101;SDS011;11720;51.214;22.574;2023-03-26T00:41:17;7.10;;;2.87;;
23101;SDS011;11720;51.214;22.574;2023-03-26T00:43:50;2.20;;;2.00;;
23101;SDS011;11720;51.214;22.574;2023-03-26T00:46:21;6.13;;;3.10;;
23101;SDS011;11720;51.214;22.574;2023-03-26T00:48:48;5.53;;;3.23;;
23101;SDS011;11720;51.214;22.574;2023-03-26T00:51:15;2.80;;;2.40;;
23101;SDS011;11720;51.214;22.574;2023-03-26T00:53:45;4.30;;;2.30;;
23101;SDS011;11720;51.214;22.574;2023-03-26T00:56:11;6.67;;;3.53;;
23101;SDS011;11720;51.214;22.574;2023-03-26T00:58:37;3.70;;;2.70;;
23101;SDS011;11720;51.214;22.574;2023-03-26T01:01:05;6.83;;;3.30;;
23101;SDS011;11720;51.214;22.574;2023-03-26T01:03:33;7.70;;;3.87;;
23101;SDS011;11720;51.214;22.574;2023-03-26T01:06:02;3.53;;;3.07;;
23101;SDS011;11720;51.214;22.574;2023-03-26T01:08:42;3.30;;;3.00;;
23101;SDS011;11720;51.214;22.574;2023-03-26T01:11:10;7.60;;;3.30;;
23101;SDS011;11720;51.214;22.574;2023-03-26T01:13:45;7.47;;;3.00;;
23101;SDS011;11720;51.214;22.574;2023-03-26T01:16:16;5.13;;;2.90;;
23101;SDS011;11720;51.214;22.574;2023-03-26T01:19:07;8.00;;;3.77;;
23101;SDS011;11720;51.214;22.574;2023-03-26T01:21:37;6.00;;;2.60;;
23101;SDS011;11720;51.214;22.574;2023-03-26T01:29:04;5.97;;;3.27;;
23101;SDS011;11720;51.214;22.574;2023-03-26T01:31:38;3.73;;;3.07;;
23101;SDS011;11720;51.214;22.574;2023-03-26T01:34:29;6.17;;;3.00;;
23101;SDS011;11720;51.214;22.574;2023-03-26T01:37:25;10.20;;;3.77;;
23101;SDS011;11720;51.214;22.574;2023-03-26T01:40:54;3.30;;;2.50;;
23101;SDS011;11720;51.214;22.574;2023-03-26T01:46:02;4.43;;;3.37;;
23101;SDS011;11720;51.214;22.574;2023-03-26T01:48:33;6.27;;;3.03;;
23101;SDS011;11720;51.214;22.574;2023-03-26T01:51:04;3.50;;;2.50;;
23101;SDS011;11720;51.214;22.574;2023-03-26T01:53:31;13.03;;;3.53;;
23101;SDS011;11720;51.214;22.574;2023-03-26T01:58:39;5.10;;;3.07;;
23101;SDS011;11720;51.214;22.574;2023-03-26T02:01:24;4.73;;;2.57;;
23101;SDS011;11720;51.214;22.574;2023-03-26T02:04:06;3.63;;;2.90;;
23101;SDS011;11720;51.214;22.574;2023-03-26T02:06:42;3.43;;;2.90;;
23101;SDS011;11720;51.214;22.574;2023-03-26T02:09:13;2.83;;;2.23;;
23101;SDS011;11720;51.214;22.574;2023-03-26T02:11:44;7.50;;;3.10;;
23101;SDS011;11720;51.214;22.574;2023-03-26T02:14:12;4.30;;;2.77;;
23101;SDS011;11720;51.214;22.574;2023-03-26T02:16:39;5.17;;;3.47;;
23101;SDS011;11720;51.214;22.574;2023-03-26T02:19:05;6.40;;;2.43;;
23101;SDS011;11720;51.214;22.574;2023-03-26T02:21:39;4.23;;;2.57;;
23101;SDS011;11720;51.214;22.574;2023-03-26T02:24:07;4.87;;;2.97;;
23101;SDS011;11720;51.214;22.574;2023-03-26T02:26:33;3.80;;;2.43;;
23101;SDS011;11720;51.214;22.574;2023-03-26T02:29:01;3.23;;;2.20;;
23101;SDS011;11720;51.214;22.574;2023-03-26T02:31:27;8.50;;;3.17;;
23101;SDS011;11720;51.214;22.574;2023-03-26T02:33:54;4.33;;;2.97;;
23101;SDS011;11720;51.214;22.574;2023-03-26T02:36:20;6.97;;;3.27;;
23101;SDS011;11720;51.214;22.574;2023-03-26T02:38:51;4.93;;;3.20;;
23101;SDS011;11720;51.214;22.574;2023-03-26T02:41:18;3.70;;;2.00;;
23101;SDS011;11720;51.214;22.574;2023-03-26T02:43:43;3.70;;;2.27;;
23101;SDS011;11720;51.214;22.574;2023-03-26T02:46:09;3.47;;;2.33;;
23101;SDS011;11720;51.214;22.574;2023-03-26T02:48:35;4.73;;;3.03;;
23101;SDS011;11720;51.214;22.574;2023-03-26T02:51:01;5.13;;;2.50;;
23101;SDS011;11720;51.214;22.574;2023-03-26T02:53:27;7.90;;;2.80;;
23101;SDS011;11720;51.214;22.574;2023-03-26T02:55:56;6.87;;;3.40;;
23101;SDS011;11720;51.214;22.574;2023-03-26T02:58:22;5.27;;;3.50;;
23101;SDS011;11720;51.214;22.574;2023-03-26T03:00:53;2.37;;;2.17;;
23101;SDS011;11720;51.214;22.574;2023-03-26T03:03:23;4.23;;;2.50;;
23101;SDS011;11720;51.214;22.574;2023-03-26T03:05:50;14.97;;;3.40;;
23101;SDS011;11720;51.214;22.574;2023-03-26T03:08:17;6.70;;;3.00;;
23101;SDS011;11720;51.214;22.574;2023-03-26T03:10:53;5.77;;;2.93;;
23101;SDS011;11720;51.214;22.574;2023-03-26T03:13:20;5.10;;;2.83;;
23101;SDS011;11720;51.214;22.574;2023-03-26T03:15:46;2.77;;;1.93;;
23101;SDS011;11720;51.214;22.574;2023-03-26T03:18:11;4.80;;;2.53;;
23101;SDS011;11720;51.214;22.574;2023-03-26T03:20:37;3.60;;;3.13;;
23101;SDS011;11720;51.214;22.574;2023-03-26T03:23:02;4.90;;;2.40;;
23101;SDS011;11720;51.214;22.574;2023-03-26T03:25:28;5.67;;;2.53;;
23101;SDS011;11720;51.214;22.574;2023-03-26T03:27:54;4.47;;;2.30;;
23101;SDS011;11720;51.214;22.574;2023-03-26T03:30:19;6.40;;;2.67;;
23101;SDS011;11720;51.214;22.574;2023-03-26T03:32:45;4.10;;;2.97;;
23101;SDS011;11720;51.214;22.574;2023-03-26T03:35:11;6.37;;;2.70;;
23101;SDS011;11720;51.214;22.574;2023-03-26T03:37:36;4.57;;;2.83;;
23101;SDS011;11720;51.214;22.574;2023-03-26T03:40:03;5.23;;;2.33;;
23101;SDS011;11720;51.214;22.574;2023-03-26T03:42:32;7.17;;;2.73;;
23101;SDS011;11720;51.214;22.574;2023-03-26T03:44:57;4.73;;;2.27;;
23101;SDS011;11720;51.214;22.574;2023-03-26T03:47:23;5.40;;;2.57;;
23101;SDS011;11720;51.214;22.574;2023-03-26T03:49:49;4.00;;;2.37;;
23101;SDS011;11720;51.214;22.574;2023-03-26T03:52:15;7.60;;;3.33;;
23101;SDS011;11720;51.214;22.574;2023-03-26T03:54:42;6.83;;;2.77;;
23101;SDS011;11720;51.214;22.574;2023-03-26T03:57:07;5.17;;;2.83;;
23101;SDS011;11720;51.214;22.574;2023-03-26T03:59:33;3.30;;;2.33;;
23101;SDS011;11720;51.214;22.574;2023-03-26T04:01:59;4.77;;;2.80;;
23101;SDS011;11720;51.214;22.574;2023-03-26T04:04:24;6.10;;;2.57;;
23101;SDS011;11720;51.214;22.574;2023-03-26T04:06:50;4.00;;;2.57;;
23101;SDS011;11720;51.214;22.574;2023-03-26T04:09:16;3.00;;;2.50;;
23101;SDS011;11720;51.214;22.574;2023-03-26T04:11:42;6.73;;;2.53;;
23101;SDS011;11720;51.214;22.574;2023-03-26T04:14:08;6.20;;;3.10;;
23101;SDS011;11720;51.214;22.574;2023-03-26T04:16:34;2.53;;;2.23;;
23101;SDS011;11720;51.214;22.574;2023-03-26T04:19:00;3.03;;;1.80;;
23101;SDS011;11720;51.214;22.574;2023-03-26T04:21:26;3.37;;;2.53;;
23101;SDS011;11720;51.214;22.574;2023-03-26T04:23:54;2.63;;;1.70;;
23101;SDS011;11720;51.214;22.574;2023-03-26T04:26:20;4.17;;;2.67;;
23101;SDS011;11720;51.214;22.574;2023-03-26T04:31:21;2.93;;;2.23;;
23101;SDS011;11720;51.214;22.574;2023-03-26T04:33:49;2.43;;;2.13;;
23101;SDS011;11720;51.214;22.574;2023-03-26T04:36:21;4.17;;;2.20;;
23101;SDS011;11720;51.214;22.574;2023-03-26T04:38:51;6.73;;;2.50;;
23101;SDS011;11720;51.214;22.574;2023-03-26T04:41:18;4.83;;;2.40;;
23101;SDS011;11720;51.214;22.574;2023-03-26T04:43:44;3.13;;;2.00;;
23101;SDS011;11720;51.214;22.574;2023-03-26T04:46:15;3.77;;;2.37;;
23101;SDS011;11720;51.214;22.574;2023-03-26T04:48:50;8.00;;;1.80;;
23101;SDS011;11720;51.214;22.574;2023-03-26T04:51:17;2.57;;;2.37;;
23101;SDS011;11720;51.214;22.574;2023-03-26T04:53:49;2.83;;;2.20;;
23101;SDS011;11720;51.214;22.574;2023-03-26T04:59:07;2.40;;;1.87;;
23101;SDS011;11720;51.214;22.574;2023-03-26T05:01:38;3.87;;;2.47;;
23101;SDS011;11720;51.214;22.574;2023-03-26T05:04:04;3.60;;;2.40;;
23101;SDS011;11720;51.214;22.574;2023-03-26T05:06:30;1.83;;;1.60;;
23101;SDS011;11720;51.214;22.574;2023-03-26T05:08:58;2.27;;;1.70;;
23101;SDS011;11720;51.214;22.574;2023-03-26T05:11:26;4.43;;;2.60;;
23101;SDS011;11720;51.214;22.574;2023-03-26T05:13:52;5.13;;;3.37;;
23101;SDS011;11720;51.214;22.574;2023-03-26T05:16:17;4.07;;;2.60;;
23101;SDS011;11720;51.214;22.574;2023-03-26T05:18:43;5.13;;;2.23;;
23101;SDS011;11720;51.214;22.574;2023-03-26T05:21:10;3.90;;;2.20;;
23101;SDS011;11720;51.214;22.574;2023-03-26T05:23:36;3.33;;;2.00;;
23101;SDS011;11720;51.214;22.574;2023-03-26T05:26:02;3.23;;;2.00;;
23101;SDS011;11720;51.214;22.574;2023-03-26T05:28:28;5.33;;;2.20;;
23101;SDS011;11720;51.214;22.574;2023-03-26T05:30:53;3.90;;;2.27;;
23101;SDS011;11720;51.214;22.574;2023-03-26T05:33:20;9.27;;;3.63;;
23101;SDS011;11720;51.214;22.574;2023-03-26T05:35:46;3.37;;;2.50;;
23101;SDS011;11720;51.214;22.574;2023-03-26T05:38:13;3.73;;;2.03;;
23101;SDS011;11720;51.214;22.574;2023-03-26T05:40:39;2.97;;;2.53;;
23101;SDS011;11720;51.214;22.574;2023-03-26T05:43:05;3.33;;;1.97;;
23101;SDS011;11720;51.214;22.574;2023-03-26T05:45:30;4.00;;;2.10;;
23101;SDS011;11720;51.214;22.574;2023-03-26T05:47:56;3.50;;;2.33;;
23101;SDS011;11720;51.214;22.574;2023-03-26T05:50:21;4.53;;;3.07;;
23101;SDS011;11720;51.214;22.574;2023-03-26T05:52:47;3.10;;;2.30;;
23101;SDS011;11720;51.214;22.574;2023-03-26T05:55:13;2.73;;;2.03;;
23101;SDS011;11720;51.214;22.574;2023-03-26T05:57:38;4.60;;;2.70;;
23101;SDS011;11720;51.214;22.574;2023-03-26T06:00:06;4.70;;;3.10;;
23101;SDS011;11720;51.214;22.574;2023-03-26T06:02:36;4.27;;;2.63;;
23101;SDS011;11720;51.214;22.574;2023-03-26T06:05:01;5.87;;;3.30;;
23101;SDS011;11720;51.214;22.574;2023-03-26T06:07:28;3.53;;;2.33;;
23101;SDS011;11720;51.214;22.574;2023-03-26T06:09:55;4.97;;;2.77;;
23101;SDS011;11720;51.214;22.574;2023-03-26T06:12:20;2.40;;;2.07;;
23101;SDS011;11720;51.214;22.574;2023-03-26T06:14:46;2.57;;;2.03;;
23101;SDS011;11720;51.214;22.574;2023-03-26T06:17:12;8.03;;;2.30;;
23101;SDS011;11720;51.214;22.574;2023-03-26T06:19:38;2.70;;;1.97;;
23101;SDS011;11720;51.214;22.574;2023-03-26T06:22:03;4.10;;;2.57;;
23101;SDS011;11720;51.214;22.574;2023-03-26T06:24:29;4.07;;;2.10;;
23101;SDS011;11720;51.214;22.574;2023-03-26T06:26:55;5.57;;;2.50;;
23101;SDS011;11720;51.214;22.574;2023-03-26T06:29:21;2.03;;;1.63;;
23101;SDS011;11720;51.214;22.574;2023-03-26T06:31:47;2.13;;;1.57;;
23101;SDS011;11720;51.214;22.574;2023-03-26T06:34:12;2.17;;;1.83;;
23101;SDS011;11720;51.214;22.574;2023-03-26T06:36:38;3.03;;;2.10;;
23101;SDS011;11720;51.214;22.574;2023-03-26T06:39:04;6.57;;;2.47;;
23101;SDS011;11720;51.214;22.574;2023-03-26T06:41:31;8.93;;;2.63;;
23101;SDS011;11720;51.214;22.574;2023-03-26T06:43:58;5.90;;;2.77;;
23101;SDS011;11720;51.214;22.574;2023-03-26T06:46:24;3.57;;;2.10;;
23101;SDS011;11720;51.214;22.574;2023-03-26T06:48:50;3.77;;;2.47;;
23101;SDS011;11720;51.214;22.574;2023-03-26T06:51:16;4.57;;;2.70;;
23101;SDS011;11720;51.214;22.574;2023-03-26T06:53:42;5.50;;;2.33;;
23101;SDS011;11720;51.214;22.574;2023-03-26T06:56:07;3.43;;;1.97;;
23101;SDS011;11720;51.214;22.574;2023-03-26T06:58:33;4.33;;;2.80;;
23101;SDS011;11720;51.214;22.574;2023-03-26T07:00:59;1.73;;;1.57;;
23101;SDS011;11720;51.214;22.574;2023-03-26T07:03:25;6.73;;;3.57;;
23101;SDS011;11720;51.214;22.574;2023-03-26T07:05:51;4.97;;;2.13;;
23101;SDS011;11720;51.214;22.574;2023-03-26T07:08:16;5.60;;;2.67;;
23101;SDS011;11720;51.214;22.574;2023-03-26T07:10:42;7.07;;;2.27;;
23101;SDS011;11720;51.214;22.574;2023-03-26T07:13:08;5.03;;;2.60;;
23101;SDS011;11720;51.214;22.574;2023-03-26T07:15:34;3.60;;;2.33;;
23101;SDS011;11720;51.214;22.574;2023-03-26T07:18:00;7.00;;;1.83;;
23101;SDS011;11720;51.214;22.574;2023-03-26T07:20:25;2.90;;;1.93;;
23101;SDS011;11720;51.214;22.574;2023-03-26T07:22:51;7.93;;;3.07;;
23101;SDS011;11720;51.214;22.574;2023-03-26T07:25:18;3.03;;;1.80;;
23101;SDS011;11720;51.214;22.574;2023-03-26T07:27:53;3.37;;;2.43;;
23101;SDS011;11720;51.214;22.574;2023-03-26T07:33:34;4.00;;;2.37;;
23101;SDS011;11720;51.214;22.574;2023-03-26T07:41:37;5.40;;;2.10;;
23101;SDS011;11720;51.214;22.574;2023-03-26T07:47:15;2.67;;;1.70;;
23101;SDS011;11720;51.214;22.574;2023-03-26T07:49:53;2.43;;;2.17;;
23101;SDS011;11720;51.214;22.574;2023-03-26T07:52:21;2.40;;;1.80;;
23101;SDS011;11720;51.214;22.574;2023-03-26T07:54:47;1.63;;;1.53;;
23101;SDS011;11720;51.214;22.574;2023-03-26T07:57:19;2.73;;;1.67;;
23101;SDS011;11720;51.214;22.574;2023-03-26T08:00:21;2.77;;;1.93;;
23101;SDS011;11720;51.214;22.574;2023-03-26T08:12:02;3.10;;;2.03;;
23101;SDS011;11720;51.214;22.574;2023-03-26T08:14:43;4.43;;;2.40;;
23101;SDS011;11720;51.214;22.574;2023-03-26T08:17:13;2.43;;;2.10;;
23101;SDS011;11720;51.214;22.574;2023-03-26T08:22:28;3.67;;;1.80;;
23101;SDS011;11720;51.214;22.574;2023-03-26T08:30:16;4.03;;;2.37;;
23101;SDS011;11720;51.214;22.574;2023-03-26T08:32:48;4.27;;;2.30;;
23101;SDS011;11720;51.214;22.574;2023-03-26T08:35:21;10.37;;;1.90;;
23101;SDS011;11720;51.214;22.574;2023-03-26T08:37:48;3.30;;;2.20;;
23101;SDS011;11720;51.214;22.574;2023-03-26T08:40:16;4.90;;;2.27;;
23101;SDS011;11720;51.214;22.574;2023-03-26T08:49:31;3.50;;;2.30;;
23101;SDS011;11720;51.214;22.574;2023-03-26T09:05:56;1.30;;;1.20;;
23101;SDS011;11720;51.214;22.574;2023-03-26T09:27:10;4.47;;;2.00;;
23101;SDS011;11720;51.214;22.574;2023-03-26T09:40:15;1.67;;;1.57;;
23101;SDS011;11720;51.214;22.574;2023-03-26T09:42:54;3.95;;;2.30;;
23101;SDS011;11720;51.214;22.574;2023-03-26T09:45:51;1.75;;;1.65;;
23101;SDS011;11720;51.214;22.574;2023-03-26T09:51:20;2.72;;;1.95;;
23101;SDS011;11720;51.214;22.574;2023-03-26T09:57:17;4.07;;;1.77;;
23101;SDS011;11720;51.214;22.574;2023-03-26T09:59:32;2.93;;;1.43;;
23101;SDS011;11720;51.214;22.574;2023-03-26T10:07:48;3.37;;;1.90;;
23101;SDS011;11720;51.214;22.574;2023-03-26T10:27:28;2.63;;;1.48;;
23101;SDS011;11720;51.214;22.574;2023-03-26T10:30:22;1.90;;;1.50;;
23101;SDS011;11720;51.214;22.574;2023-03-26T10:32:58;1.05;;;1.00;;
23101;SDS011;11720;51.214;22.574;2023-03-26T10:41:18;0.80;;;0.80;;
23101;SDS011;11720;51.214;22.574;2023-03-26T10:52:36;0.63;;;0.63;;
23101;SDS011;11720;51.214;22.574;2023-03-26T10:55:14;0.55;;;0.50;;
23101;SDS011;11720;51.214;22.574;2023-03-26T11:00:21;2.13;;;0.93;;
23101;SDS011;11720;51.214;22.574;2023-03-26T11:03:11;1.55;;;1.45;;
23101;SDS011;11720;51.214;22.574;2023-03-26T11:06:09;0.70;;;0.70;;
23101;SDS011;11720;51.214;22.574;2023-03-26T11:08:47;0.75;;;0.75;;
23101;SDS011;11720;51.214;22.574;2023-03-26T11:11:27;1.17;;;0.73;;
23101;SDS011;11720;51.214;22.574;2023-03-26T11:33:02;0.73;;;0.73;;
23101;SDS011;11720;51.214;22.574;2023-03-26T11:35:38;0.85;;;0.80;;
23101;SDS011;11720;51.214;22.574;2023-03-26T11:40:42;1.25;;;1.10;;
23101;SDS011;11720;51.214;22.574;2023-03-26T11:43:14;0.77;;;0.77;;
23101;SDS011;11720;51.214;22.574;2023-03-26T11:45:52;3.40;;;1.30;;
23101;SDS011;11720;51.214;22.574;2023-03-26T11:50:55;1.00;;;0.90;;
23101;SDS011;11720;51.214;22.574;2023-03-26T11:53:31;1.80;;;0.82;;
23101;SDS011;11720;51.214;22.574;2023-03-26T11:56:02;0.65;;;0.65;;
23101;SDS011;11720;51.214;22.574;2023-03-26T11:58:51;1.10;;;0.85;;
23101;SDS011;11720;51.214;22.574;2023-03-26T12:01:24;0.80;;;0.80;;
23101;SDS011;11720;51.214;22.574;2023-03-26T12:09:49;1.15;;;0.95;;
23101;SDS011;11720;51.214;22.574;2023-03-26T12:12:26;1.38;;;1.27;;
23101;SDS011;11720;51.214;22.574;2023-03-26T12:14:56;0.52;;;0.52;;
23101;SDS011;11720;51.214;22.574;2023-03-26T12:19:55;1.15;;;0.95;;
23101;SDS011;11720;51.214;22.574;2023-03-26T12:22:37;0.93;;;0.52;;
23101;SDS011;11720;51.214;22.574;2023-03-26T12:25:15;0.70;;;0.70;;
23101;SDS011;11720;51.214;22.574;2023-03-26T12:30:38;1.00;;;0.93;;
23101;SDS011;11720;51.214;22.574;2023-03-26T12:33:06;0.88;;;0.88;;
23101;SDS011;11720;51.214;22.574;2023-03-26T12:35:40;0.80;;;0.80;;
23101;SDS011;11720;51.214;22.574;2023-03-26T12:38:14;0.80;;;0.80;;
23101;SDS011;11720;51.214;22.574;2023-03-26T12:40:40;1.23;;;1.02;;
23101;SDS011;11720;51.214;22.574;2023-03-26T12:43:21;1.30;;;1.20;;
23101;SDS011;11720;51.214;22.574;2023-03-26T12:45:55;3.13;;;1.20;;
23101;SDS011;11720;51.214;22.574;2023-03-26T12:48:23;4.35;;;2.00;;
23101;SDS011;11720;51.214;22.574;2023-03-26T13:12:48;1.52;;;1.27;;
23101;SDS011;11720;51.214;22.574;2023-03-26T13:42:13;2.22;;;0.95;;
23101;SDS011;11720;51.214;22.574;2023-03-26T13:47:13;1.55;;;0.70;;
23101;SDS011;11720;51.214;22.574;2023-03-26T13:49:50;0.68;;;0.68;;
23101;SDS011;11720;51.214;22.574;2023-03-26T13:52:21;0.73;;;0.63;;
23101;SDS011;11720;51.214;22.574;2023-03-26T13:55:06;2.00;;;1.33;;
23101;SDS011;11720;51.214;22.574;2023-03-26T14:03:21;1.20;;;1.10;;
23101;SDS011;11720;51.214;22.574;2023-03-26T14:05:50;0.98;;;0.93;;
23101;SDS011;11720;51.214;22.574;2023-03-26T14:08:26;1.17;;;1.17;;
23101;SDS011;11720;51.214;22.574;2023-03-26T14:13:48;2.13;;;1.13;;
23101;SDS011;11720;51.214;22.574;2023-03-26T14:16:28;1.20;;;1.10;;
23101;SDS011;11720;51.214;22.574;2023-03-26T14:22:16;0.88;;;0.88;;
23101;SDS011;11720;51.214;22.574;2023-03-26T14:30:38;1.20;;;1.05;;
23101;SDS011;11720;51.214;22.574;2023-03-26T14:41:50;1.05;;;0.90;;
23101;SDS011;11720;51.214;22.574;2023-03-26T14:47:25;1.85;;;1.20;;
23101;SDS011;11720;51.214;22.574;2023-03-26T14:52:49;1.00;;;0.90;;
23101;SDS011;11720;51.214;22.574;2023-03-26T15:03:13;1.60;;;1.10;;
23101;SDS011;11720;51.214;22.574;2023-03-26T15:14:51;1.70;;;1.23;;
23101;SDS011;11720;51.214;22.574;2023-03-26T15:20:14;1.67;;;1.40;;
23101;SDS011;11720;51.214;22.574;2023-03-26T15:49:46;3.80;;;1.33;;
23101;SDS011;11720;51.214;22.574;2023-03-26T15:52:35;1.10;;;1.00;;
23101;SDS011;11720;51.214;22.574;2023-03-26T15:58:52;1.52;;;1.15;;
23101;SDS011;11720;51.214;22.574;2023-03-26T16:12:02;1.35;;;1.20;;
23101;SDS011;11720;51.214;22.574;2023-03-26T16:14:45;2.15;;;1.23;;
23101;SDS011;11720;51.214;22.574;2023-03-26T16:17:28;0.65;;;0.65;;
23101;SDS011;11720;51.214;22.574;2023-03-26T16:20:31;1.85;;;1.10;;
23101;SDS011;11720;51.214;22.574;2023-03-26T16:22:59;1.75;;;1.13;;
23101;SDS011;11720;51.214;22.574;2023-03-26T16:25:29;0.98;;;0.77;;
23101;SDS011;11720;51.214;22.574;2023-03-26T16:33:49;1.67;;;1.08;;
23101;SDS011;11720;51.214;22.574;2023-03-26T16:36:33;1.98;;;0.90;;
23101;SDS011;11720;51.214;22.574;2023-03-26T16:44:19;1.05;;;0.95;;
23101;SDS011;11720;51.214;22.574;2023-03-26T16:52:59;1.50;;;1.40;;
23101;SDS011;11720;51.214;22.574;2023-03-26T16:58:27;1.73;;;1.63;;
23101;SDS011;11720;51.214;22.574;2023-03-26T17:06:43;1.80;;;1.27;;
23101;SDS011;11720;51.214;22.574;2023-03-26T17:20:41;3.37;;;2.00;;
23101;SDS011;11720;51.214;22.574;2023-03-26T17:28:45;5.90;;;2.50;;
23101;SDS011;11720;51.214;22.574;2023-03-26T17:37:10;29.33;;;11.47;;
23101;SDS011;11720;51.214;22.574;2023-03-26T17:47:28;36.90;;;14.97;;
23101;SDS011;11720;51.214;22.574;2023-03-26T17:52:53;25.83;;;10.50;;
23101;SDS011;11720;51.214;22.574;2023-03-26T17:55:29;23.20;;;9.90;;
23101;SDS011;11720;51.214;22.574;2023-03-26T17:58:01;24.40;;;9.73;;
23101;SDS011;11720;51.214;22.574;2023-03-26T18:00:45;19.90;;;7.73;;
23101;SDS011;11720;51.214;22.574;2023-03-26T18:03:21;19.97;;;7.13;;
23101;SDS011;11720;51.214;22.574;2023-03-26T18:05:53;13.67;;;6.20;;
23101;SDS011;11720;51.214;22.574;2023-03-26T18:14:05;14.70;;;8.13;;
23101;SDS011;11720;51.214;22.574;2023-03-26T18:16:40;14.07;;;7.57;;
23101;SDS011;11720;51.214;22.574;2023-03-26T18:19:10;9.97;;;4.87;;
23101;SDS011;11720;51.214;22.574;2023-03-26T18:21:46;3.23;;;2.33;;
23101;SDS011;11720;51.214;22.574;2023-03-26T18:24:36;8.97;;;3.60;;
23101;SDS011;11720;51.214;22.574;2023-03-26T18:27:03;12.60;;;7.13;;
23101;SDS011;11720;51.214;22.574;2023-03-26T18:29:41;7.77;;;5.13;;
23101;SDS011;11720;51.214;22.574;2023-03-26T18:34:44;7.37;;;3.87;;
23101;SDS011;11720;51.214;22.574;2023-03-26T18:39:41;16.53;;;8.00;;
23101;SDS011;11720;51.214;22.574;2023-03-26T18:42:20;11.17;;;5.90;;
23101;SDS011;11720;51.214;22.574;2023-03-26T18:44:48;9.63;;;5.17;;
23101;SDS011;11720;51.214;22.574;2023-03-26T18:47:17;6.07;;;4.07;;
23101;SDS011;11720;51.214;22.574;2023-03-26T18:49:43;11.07;;;4.13;;
23101;SDS011;11720;51.214;22.574;2023-03-26T18:52:12;7.37;;;3.47;;
23101;SDS011;11720;51.214;22.574;2023-03-26T18:54:40;7.73;;;3.17;;
23101;SDS011;11720;51.214;22.574;2023-03-26T18:57:09;8.27;;;3.80;;
23101;SDS011;11720;51.214;22.574;2023-03-26T18:59:43;11.73;;;4.60;;
23101;SDS011;11720;51.214;22.574;2023-03-26T19:02:10;12.70;;;5.30;;
23101;SDS011;11720;51.214;22.574;2023-03-26T19:04:38;8.97;;;4.50;;
23101;SDS011;11720;51.214;22.574;2023-03-26T19:07:08;8.33;;;4.30;;
23101;SDS011;11720;51.214;22.574;2023-03-26T19:09:37;8.00;;;4.17;;
23101;SDS011;11720;51.214;22.574;2023-03-26T19:12:52;10.03;;;3.83;;
23101;SDS011;11720;51.214;22.574;2023-03-26T19:15:03;7.33;;;3.87;;
23101;SDS011;11720;51.214;22.574;2023-03-26T19:17:30;11.93;;;4.43;;
23101;SDS011;11720;51.214;22.574;2023-03-26T19:19:58;8.53;;;4.97;;
23101;SDS011;11720;51.214;22.574;2023-03-26T19:22:25;18.80;;;5.67;;
23101;SDS011;11720;51.214;22.574;2023-03-26T19:24:55;15.17;;;5.87;;
23101;SDS011;11720;51.214;22.574;2023-03-26T19:27:30;14.40;;;5.97;;
23101;SDS011;11720;51.214;22.574;2023-03-26T19:29:56;20.47;;;7.70;;
23101;SDS011;11720;51.214;22.574;2023-03-26T19:32:29;24.47;;;9.13;;
23101;SDS011;11720;51.214;22.574;2023-03-26T19:34:57;16.10;;;6.47;;
23101;SDS011;11720;51.214;22.574;2023-03-26T19:37:26;17.83;;;7.10;;
23101;SDS011;11720;51.214;22.574;2023-03-26T19:40:00;18.27;;;8.53;;
23101;SDS011;11720;51.214;22.574;2023-03-26T19:42:46;22.90;;;7.93;;
23101;SDS011;11720;51.214;22.574;2023-03-26T19:45:14;25.97;;;7.87;;
23101;SDS011;11720;51.214;22.574;2023-03-26T19:47:43;18.20;;;6.97;;
23101;SDS011;11720;51.214;22.574;2023-03-26T19:50:20;19.20;;;7.33;;
23101;SDS011;11720;51.214;22.574;2023-03-26T19:58:19;40.20;;;12.73;;
23101;SDS011;11720;51.214;22.574;2023-03-26T20:00:45;36.40;;;12.10;;
23101;SDS011;11720;51.214;22.574;2023-03-26T20:03:11;47.93;;;14.67;;
23101;SDS011;11720;51.214;22.574;2023-03-26T20:05:40;47.53;;;15.83;;
23101;SDS011;11720;51.214;22.574;2023-03-26T20:08:12;46.17;;;14.10;;
23101;SDS011;11720;51.214;22.574;2023-03-26T20:10:39;29.87;;;12.73;;
23101;SDS011;11720;51.214;22.574;2023-03-26T20:13:23;29.27;;;11.63;;
23101;SDS011;11720;51.214;22.574;2023-03-26T20:15:53;26.23;;;11.67;;
23101;SDS011;11720;51.214;22.574;2023-03-26T20:18:31;29.93;;;12.47;;
23101;SDS011;11720;51.214;22.574;2023-03-26T20:20:57;46.93;;;14.43;;
23101;SDS011;11720;51.214;22.574;2023-03-26T20:23:23;35.37;;;14.30;;
23101;SDS011;11720;51.214;22.574;2023-03-26T20:25:52;43.40;;;11.63;;
23101;SDS011;11720;51.214;22.574;2023-03-26T20:28:19;26.53;;;11.47;;
23101;SDS011;11720;51.214;22.574;2023-03-26T20:30:46;19.87;;;10.50;;
23101;SDS011;11720;51.214;22.574;2023-03-26T20:33:23;32.70;;;12.87;;
23101;SDS011;11720;51.214;22.574;2023-03-26T20:35:50;31.17;;;13.23;;
23101;SDS011;11720;51.214;22.574;2023-03-26T20:38:17;36.80;;;15.60;;
23101;SDS011;11720;51.214;22.574;2023-03-26T20:40:43;95.37;;;41.50;;
23101;SDS011;11720;51.214;22.574;2023-03-26T20:43:10;105.83;;;41.57;;
23101;SDS011;11720;51.214;22.574;2023-03-26T20:45:38;84.37;;;32.53;;
23101;SDS011;11720;51.214;22.574;2023-03-26T20:48:04;86.77;;;30.00;;
23101;SDS011;11720;51.214;22.574;2023-03-26T20:50:31;75.63;;;31.97;;
23101;SDS011;11720;51.214;22.574;2023-03-26T20:52:57;68.87;;;29.67;;
23101;SDS011;11720;51.214;22.574;2023-03-26T20:55:24;42.40;;;17.93;;
23101;SDS011;11720;51.214;22.574;2023-03-26T20:57:52;48.77;;;19.83;;
23101;SDS011;11720;51.214;22.574;2023-03-26T21:00:19;68.33;;;25.77;;
23101;SDS011;11720;51.214;22.574;2023-03-26T21:02:52;61.97;;;22.60;;
23101;SDS011;11720;51.214;22.574;2023-03-26T21:05:19;51.87;;;20.93;;
23101;SDS011;11720;51.214;22.574;2023-03-26T21:07:52;51.47;;;20.27;;
23101;SDS011;11720;51.214;22.574;2023-03-26T21:10:22;60.03;;;23.80;;
23101;SDS011;11720;51.214;22.574;2023-03-26T21:12:57;63.30;;;22.77;;
23101;SDS011;11720;51.214;22.574;2023-03-26T21:15:26;49.10;;;21.17;;
23101;SDS011;11720;51.214;22.574;2023-03-26T21:17:53;33.43;;;14.63;;
23101;SDS011;11720;51.214;22.574;2023-03-26T21:20:20;34.57;;;17.00;;
23101;SDS011;11720;51.214;22.574;2023-03-26T21:25:24;36.13;;;12.00;;
23101;SDS011;11720;51.214;22.574;2023-03-26T21:30:32;30.10;;;13.17;;
23101;SDS011;11720;51.214;22.574;2023-03-26T21:32:58;40.33;;;12.20;;